Portada
METAR-TAF:

METAR-TAF

Aeropuertos :

Aeropuerto de Gran Canaria

Gran Canaria, España

latitud: 27-56N, longitud: 015-23W, altitud: 23 m

Observación

El informe se hizo hace 30 minutos, a las 02:00 UTC
Viento 5 kt del oeste-noroeste
Temperatura 19°C
Humedad 83%
Presión 1018 hPa
Visibilidad 10 km o más
Nubes dispersas a una altura de 2500 ft

METAR: GCLP 040200Z 30005KT 9999 SCT025 19/16 Q1018 NOSIG

Hora: 02:30 (02:30 UTC)

Pronóstico

El informe se hizo hace 6 horas y 30 minutos, a las 20:00 UTC
Pronóstico válido del 03 a las 21 UTC al 04 a las 21 UTC
Viento 8 kt del norte-noroeste
Visibilidad 10 km o más
Nubes dispersas a una altura de 3000 ft
Evolucionando progresivamente
del 04 a las 10 UTC al 04 a las 12 UTC
Viento 12 kt del norte-noreste

TAF: GCLP 032000Z 0321/0421 33008KT 9999 SCT030 TX23/0414Z TN16/0407Z BECMG 0410/0412 03012KT

Observaciones y pronósticos meteorológicos de más de 4000 aeropuertos (mensajes METAR y TAF).

Los puntos amarillos y rojos representan las estaciones disponibles.

Ponga el ratón en el punto deseado para ver el nombre de la estación.

Haga clic para ver las observaciones y los pronósticos meteorológicos.

Para cambiar el mapa : haga clic en los botones verdes con una cruz de color negro para hacer un zoom, en el botón verde con un guión para alejar o en las flechas verdes para mapas adyacentes.


METAR-TAF: